Time;durP1;ratioP1;P1;durP2;ratioP2;P2;SDS_P1;SDS_P2;PMS_P1;PMS_P2;Temp;Humidity;BMP_temperature;BMP_pressure;BME280_temperature;BME280_humidity;BME280_pressure;Samples;Min_cycle;Max_cycle;Signal;HPM_P1;HPM_P2
2023/02/28 00:00:29;;;;;;;10.65;3.50;;;;;;;-0.75;83.49;100431.13;5065487;28;20501;-59
2023/02/28 00:02:55;;;;;;;6.38;3.20;;;;;;;-0.76;83.89;100429.44;5077804;28;20190;-59
2023/02/28 00:05:22;;;;;;;9.75;3.88;;;;;;;-0.87;84.24;100437.50;5088916;28;20312;-60
2023/02/28 00:07:47;;;;;;;6.70;3.85;;;;;;;-0.86;84.58;100433.88;5085176;28;20054;-59
2023/02/28 00:10:15;;;;;;;13.65;5.00;;;;;;;-0.94;84.86;100431.13;5058159;28;20025;-59
2023/02/28 00:12:40;;;;;;;13.88;5.20;;;;;;;-1.04;85.33;100431.13;5079227;28;20044;-59
2023/02/28 00:15:09;;;;;;;10.50;3.75;;;;;;;-1.11;85.73;100430.84;5075762;28;20332;-60
2023/02/28 00:17:35;;;;;;;12.80;5.03;;;;;;;-1.17;86.11;100426.13;5084066;28;20031;-60
2023/02/28 00:20:11;;;;;;;8.45;3.85;;;;;;;-1.19;86.29;100428.06;5080573;28;20033;-59
2023/02/28 00:22:42;;;;;;;9.30;4.05;;;;;;;-1.23;86.82;100425.84;5075081;28;20063;-60
2023/02/28 00:25:08;;;;;;;11.68;4.38;;;;;;;-1.32;87.24;100432.78;5084042;28;20065;-59
2023/02/28 00:27:35;;;;;;;8.50;4.32;;;;;;;-1.37;87.74;100434.97;5083829;28;20351;-59
2023/02/28 00:30:00;;;;;;;12.10;4.63;;;;;;;-1.44;88.16;100434.69;5080789;28;20029;-59
2023/02/28 00:32:26;;;;;;;11.63;4.57;;;;;;;-1.46;88.28;100427.88;5076592;28;20047;-60
2023/02/28 00:34:51;;;;;;;9.90;4.85;;;;;;;-1.53;88.85;100425.78;5061706;28;20040;-59
2023/02/28 00:37:17;;;;;;;9.27;4.57;;;;;;;-1.56;89.19;100430.50;5063701;28;20032;-59
2023/02/28 00:39:42;;;;;;;11.80;4.97;;;;;;;-1.62;89.07;100431.88;5077788;28;20404;-59
2023/02/28 00:42:10;;;;;;;12.93;5.30;;;;;;;-1.66;89.80;100435.72;5054022;28;20119;-60
2023/02/28 00:44:36;;;;;;;11.38;5.00;;;;;;;-1.66;89.49;100438.34;5062344;28;20036;-59
2023/02/28 00:47:01;;;;;;;12.45;4.50;;;;;;;-1.66;89.98;100438.34;5071411;28;20028;-59
2023/02/28 00:49:27;;;;;;;15.35;3.90;;;;;;;-1.76;90.28;100438.31;5077770;28;20023;-59
2023/02/28 00:51:52;;;;;;;9.73;4.00;;;;;;;-1.80;90.56;100441.34;5075545;28;20075;-59
2023/02/28 00:54:18;;;;;;;13.25;4.07;;;;;;;-1.83;90.78;100438.97;5084536;28;20039;-60
2023/02/28 00:56:45;;;;;;;10.40;4.43;;;;;;;-1.84;90.94;100435.53;5079811;28;20178;-59
2023/02/28 00:59:11;;;;;;;10.90;4.30;;;;;;;-1.90;91.30;100443.09;5076633;28;20032;-60
2023/02/28 01:01:36;;;;;;;11.10;4.57;;;;;;;-1.96;91.77;100442.66;5083013;28;20402;-59
2023/02/28 01:04:02;;;;;;;8.27;3.92;;;;;;;-2.01;91.70;100433.53;5087429;28;20454;-60
2023/02/28 01:06:28;;;;;;;8.02;4.38;;;;;;;-2.03;92.67;100444.16;5075459;28;20051;-61
2023/02/28 01:08:53;;;;;;;8.60;4.20;;;;;;;-2.11;92.35;100443.97;5079796;28;20380;-58
2023/02/28 01:11:19;;;;;;;10.20;4.78;;;;;;;-2.19;92.79;100451.69;5061949;28;20085;-58
2023/02/28 01:13:44;;;;;;;8.95;4.25;;;;;;;-2.23;93.38;100437.16;5063131;28;20024;-58
2023/02/28 01:16:10;;;;;;;11.65;4.60;;;;;;;-2.29;93.88;100440.31;5065134;28;20033;-59
2023/02/28 01:18:36;;;;;;;11.27;4.60;;;;;;;-2.32;94.04;100443.16;5052826;28;20474;-58
2023/02/28 01:21:09;;;;;;;9.27;4.50;;;;;;;-2.38;94.18;100440.09;5069370;28;20025;-58
2023/02/28 01:23:34;;;;;;;8.65;4.47;;;;;;;-2.41;94.66;100434.28;5069539;28;20055;-58
2023/02/28 01:26:07;;;;;;;7.40;4.32;;;;;;;-2.38;94.27;100436.66;5053459;28;20479;-58
2023/02/28 01:28:32;;;;;;;9.13;4.00;;;;;;;-2.42;94.68;100441.34;5061251;28;20032;-59
2023/02/28 01:30:58;;;;;;;11.07;4.93;;;;;;;-2.44;94.45;100432.75;5063211;28;20029;-58
2023/02/28 01:33:23;;;;;;;9.82;4.18;;;;;;;-2.41;94.69;100435.13;5053980;28;20029;-58
2023/02/28 01:35:49;;;;;;;5.68;3.85;;;;;;;-2.38;93.95;100437.47;5070973;28;20044;-58
2023/02/28 01:38:14;;;;;;;9.65;4.38;;;;;;;-2.39;93.84;100433.19;5072100;28;20037;-58
2023/02/28 01:40:40;;;;;;;10.00;4.50;;;;;;;-2.41;94.12;100437.75;5057372;28;20177;-58
2023/02/28 01:43:20;;;;;;;6.70;4.18;;;;;;;-2.44;94.07;100434.56;5067520;28;20033;-59
2023/02/28 01:45:46;;;;;;;9.52;4.97;;;;;;;-2.52;94.29;100437.81;5061566;28;20313;-59
2023/02/28 01:48:12;;;;;;;10.80;5.45;;;;;;;-2.60;94.80;100434.97;5064323;28;20098;-59
2023/02/28 01:50:39;;;;;;;14.57;4.40;;;;;;;-2.62;95.45;100435.13;5048027;28;20032;-59
2023/02/28 01:53:06;;;;;;;9.57;4.70;;;;;;;-2.62;95.21;100434.31;5064313;28;20410;-63
2023/02/28 01:55:31;;;;;;;9.45;4.30;;;;;;;-2.66;95.33;100430.25;5065433;28;20033;-60
2023/02/28 01:57:58;;;;;;;8.95;4.72;;;;;;;-2.70;95.66;100428.84;5061972;28;20029;-59
2023/02/28 02:00:26;;;;;;;8.55;4.68;;;;;;;-2.69;95.50;100426.09;5041694;28;20478;-59
2023/02/28 02:02:54;;;;;;;8.95;4.30;;;;;;;-2.74;95.56;100427.44;5061050;28;20712;-60
2023/02/28 02:05:23;;;;;;;12.52;5.05;;;;;;;-2.77;95.75;100430.31;5080809;28;20081;-60
2023/02/28 02:07:54;;;;;;;15.40;4.95;;;;;;;-2.77;96.13;100425.91;5065057;28;20031;-60
2023/02/28 02:10:21;;;;;;;;;;;;;;;-2.71;95.78;100422.75;5034957;28;20553;-60
2023/02/28 02:13:05;;;;;;;7.85;4.50;;;;;;;-2.76;95.82;100429.38;5056252;28;20390;-59
2023/02/28 02:15:43;;;;;;;15.98;5.00;;;;;;;-2.77;96.02;100425.06;5064037;28;20040;-59
2023/02/28 02:18:31;;;;;;;8.10;4.22;;;;;;;-2.80;96.25;100418.28;5061223;28;20118;-59
2023/02/28 02:21:21;;;;;;;8.48;4.20;;;;;;;-2.78;96.58;100420.78;5039117;28;20090;-60
2023/02/28 02:24:02;;;;;;;9.25;4.43;;;;;;;-2.87;96.52;100411.84;5062814;28;20047;-59
2023/02/28 02:26:42;;;;;;;10.57;4.57;;;;;;;-2.85;96.13;100409.94;5058711;28;20032;-59
2023/02/28 02:29:35;;;;;;;11.18;5.03;;;;;;;-2.97;96.57;100406.56;5053274;28;20029;-59
2023/02/28 02:32:03;;;;;;;8.68;4.80;;;;;;;-2.99;96.89;100402.41;5057818;28;20037;-60
2023/02/28 02:34:44;;;;;;;9.30;4.63;;;;;;;-3.03;97.26;100407.88;5063586;28;20032;-59
2023/02/28 02:37:28;;;;;;;9.43;4.95;;;;;;;-3.07;97.66;100405.63;5062715;28;20068;-59
2023/02/28 02:40:17;;;;;;;9.32;5.10;;;;;;;-3.05;97.42;100408.97;5036273;28;20033;-59
2023/02/28 02:42:47;;;;;;;10.27;5.10;;;;;;;-3.05;97.34;100411.59;5032828;28;20044;-59
2023/02/28 02:45:27;;;;;;;8.18;4.75;;;;;;;-3.09;97.68;100411.03;5062962;28;20032;-59
2023/02/28 02:47:53;;;;;;;9.82;5.30;;;;;;;-3.10;98.15;100403.25;5039481;28;21056;-59
2023/02/28 02:50:29;;;;;;;10.15;5.35;;;;;;;-3.08;97.79;100414.47;5054867;28;20028;-59
2023/02/28 02:52:56;;;;;;;7.53;5.10;;;;;;;-3.08;96.94;100409.22;5052632;28;20209;-59
2023/02/28 02:55:22;;;;;;;7.97;4.72;;;;;;;-3.11;96.71;100409.47;5058703;28;20051;-59
2023/02/28 02:57:50;;;;;;;7.70;4.82;;;;;;;-3.10;97.17;100419.81;5044077;28;20032;-60
2023/02/28 03:00:17;;;;;;;8.65;4.35;;;;;;;-3.10;96.70;100413.75;5035999;28;20112;-59
2023/02/28 03:02:43;;;;;;;12.95;5.07;;;;;;;-3.11;96.84;100414.72;5055285;28;20040;-59
2023/02/28 03:05:14;;;;;;;10.40;5.15;;;;;;;-3.16;96.97;100416.91;5058907;28;20036;-59
2023/02/28 03:07:39;;;;;;;12.55;5.25;;;;;;;-3.21;97.59;100409.41;5053283;28;20032;-59
2023/02/28 03:10:28;;;;;;;14.38;5.22;;;;;;;-3.25;97.84;100414.03;5060188;28;20040;-59
2023/02/28 03:13:20;;;;;;;8.45;5.35;;;;;;;-3.28;97.74;100414.28;5076113;28;20048;-59
2023/02/28 03:16:10;;;;;;;6.20;4.32;;;;;;;-3.30;97.71;100408.34;5054531;28;20037;-59
2023/02/28 03:18:59;;;;;;;11.30;5.43;;;;;;;-3.28;97.16;100413.47;5088413;28;20059;-59
2023/02/28 03:21:37;;;;;;;10.05;5.07;;;;;;;-3.23;96.62;100410.47;5064515;28;20170;-59
2023/02/28 03:24:12;;;;;;;8.82;4.88;;;;;;;-3.30;96.42;100410.97;5049964;28;20460;-59
2023/02/28 03:26:42;;;;;;;9.02;4.82;;;;;;;-3.30;96.15;100408.34;5075236;28;20491;-59
2023/02/28 03:29:29;;;;;;;7.65;5.25;;;;;;;-3.26;95.79;100406.31;5065096;28;20020;-59
2023/02/28 03:31:59;;;;;;;9.98;5.20;;;;;;;-3.31;95.71;100404.06;5064155;28;20112;-59
2023/02/28 03:34:36;;;;;;;11.32;5.72;;;;;;;-3.32;95.55;100418.16;5085061;28;20023;-59
2023/02/28 03:37:10;;;;;;;12.73;5.32;;;;;;;-3.36;95.57;100416.72;5083656;28;20144;-59
2023/02/28 03:39:37;;;;;;;10.43;5.38;;;;;;;-3.31;94.91;100414.56;5039372;28;20063;-59
2023/02/28 03:42:11;;;;;;;10.70;5.65;;;;;;;-3.42;95.30;100413.75;5078864;28;20518;-59
2023/02/28 03:44:40;;;;;;;8.80;5.47;;;;;;;-3.41;95.35;100412.81;5031321;28;20025;-59
2023/02/28 03:47:12;;;;;;;13.38;5.80;;;;;;;-3.38;95.17;100416.00;5080594;28;20097;-59
2023/02/28 03:49:47;;;;;;;11.73;5.20;;;;;;;-3.38;94.90;100410.75;5057658;28;20067;-59
2023/02/28 03:52:13;;;;;;;11.02;6.15;;;;;;;-3.44;94.93;100411.25;5073340;28;20037;-59
2023/02/28 03:54:42;;;;;;;13.85;6.10;;;;;;;-3.49;94.68;100408.19;5060064;28;20060;-59
2023/02/28 03:57:23;;;;;;;11.55;5.35;;;;;;;-3.46;94.75;100410.53;5042488;28;20113;-59
2023/02/28 03:59:55;;;;;;;7.47;4.53;;;;;;;-3.46;94.25;100415.78;5059339;28;20457;-59
2023/02/28 04:02:21;;;;;;;9.60;5.03;;;;;;;-3.45;94.59;100411.38;5059853;28;20032;-59
2023/02/28 04:04:48;;;;;;;9.15;5.28;;;;;;;-3.47;94.18;100420.22;5082212;28;20047;-59
2023/02/28 04:07:13;;;;;;;15.65;4.93;;;;;;;-3.50;94.07;100424.84;5081653;28;20029;-59
2023/02/28 04:09:39;;;;;;;9.35;5.15;;;;;;;-3.42;94.78;100425.09;5086014;28;20066;-59
2023/02/28 04:12:04;;;;;;;7.55;4.38;;;;;;;-3.47;94.08;100427.22;5061016;28;20120;-59
2023/02/28 04:14:30;;;;;;;7.93;4.70;;;;;;;-3.53;93.36;100415.44;5083464;28;20045;-59
2023/02/28 04:16:55;;;;;;;8.90;4.47;;;;;;;-3.50;93.75;100419.59;5052198;28;20036;-59
2023/02/28 04:19:21;;;;;;;8.80;5.18;;;;;;;-3.52;93.53;100421.50;5078940;28;20024;-59
2023/02/28 04:21:48;;;;;;;12.07;5.28;;;;;;;-3.52;94.61;100422.38;5082043;28;20459;-59
2023/02/28 04:24:16;;;;;;;9.18;4.75;;;;;;;-3.62;94.65;100420.56;5076653;28;20034;-59
2023/02/28 04:26:52;;;;;;;13.95;4.95;;;;;;;-3.65;94.00;100420.81;5079175;28;20471;-59
2023/02/28 04:29:19;;;;;;;7.80;4.63;;;;;;;-3.65;93.53;100419.03;5084081;28;20325;-59
2023/02/28 04:31:45;;;;;;;10.88;4.50;;;;;;;-3.62;93.40;100416.19;5058929;28;20035;-59
2023/02/28 04:34:10;;;;;;;6.95;4.55;;;;;;;-3.65;93.70;100411.16;5082537;28;20028;-59
2023/02/28 04:36:36;;;;;;;10.32;4.53;;;;;;;-3.63;94.93;100427.63;5085105;28;20098;-59
2023/02/28 04:39:02;;;;;;;8.68;4.90;;;;;;;-3.60;95.88;100418.66;5080128;28;20036;-59
2023/02/28 04:41:27;;;;;;;8.63;5.15;;;;;;;-3.66;95.09;100425.25;5083402;28;20024;-59
2023/02/28 04:43:53;;;;;;;8.57;5.10;;;;;;;-3.77;94.52;100428.72;5096470;28;20146;-59
2023/02/28 04:46:18;;;;;;;8.65;4.60;;;;;;;-3.78;94.41;100424.41;5090214;28;20039;-59
2023/02/28 04:48:44;;;;;;;10.57;4.20;;;;;;;-3.80;94.25;100425.50;5079304;28;20336;-59
2023/02/28 04:51:11;;;;;;;9.25;5.05;;;;;;;-3.85;94.39;100419.78;5092164;28;20039;-59
2023/02/28 04:53:37;;;;;;;10.20;4.90;;;;;;;-3.94;95.31;100421.34;5087536;28;20039;-60
2023/02/28 04:56:03;;;;;;;9.10;4.63;;;;;;;-3.96;96.20;100423.25;5085455;28;20455;-60
2023/02/28 04:58:29;;;;;;;9.00;5.22;;;;;;;-4.04;96.17;100423.84;5079071;28;20033;-60
2023/02/28 05:01:01;;;;;;;8.23;4.82;;;;;;;-4.12;97.15;100424.44;5074109;28;20029;-59
2023/02/28 05:03:26;;;;;;;12.20;5.53;;;;;;;-4.14;97.24;100423.72;5060720;28;20035;-60
2023/02/28 05:05:51;;;;;;;11.68;5.28;;;;;;;-4.13;96.67;100432.41;5077741;28;20056;-60
2023/02/28 05:08:17;;;;;;;18.63;5.57;;;;;;;-4.09;96.08;100433.84;5084117;28;20062;-60
2023/02/28 05:10:42;;;;;;;11.07;6.07;;;;;;;-4.08;96.33;100435.50;5087275;28;20036;-60
2023/02/28 05:13:11;;;;;;;9.35;5.40;;;;;;;-4.12;96.23;100434.06;5091677;28;20128;-60
2023/02/28 05:15:36;;;;;;;12.15;5.15;;;;;;;-4.12;96.49;100439.28;5073362;28;20039;-59
2023/02/28 05:18:02;;;;;;;10.38;4.88;;;;;;;-4.03;98.06;100433.34;5078961;28;20457;-59
2023/02/28 05:20:27;;;;;;;12.18;5.13;;;;;;;-4.04;96.76;100430.84;5083908;28;20032;-60
2023/02/28 05:22:53;;;;;;;16.42;5.47;;;;;;;-4.04;96.05;100429.09;5062181;28;20032;-60
2023/02/28 05:25:19;;;;;;;14.93;5.47;;;;;;;-4.03;96.34;100440.38;5051310;28;20139;-60
2023/02/28 05:27:48;;;;;;;11.57;5.32;;;;;;;-3.98;95.89;100435.63;5074766;28;20036;-59
2023/02/28 05:30:13;;;;;;;12.32;5.43;;;;;;;-3.99;95.84;100439.22;5080146;28;20025;-60
2023/02/28 05:32:42;;;;;;;16.05;5.15;;;;;;;-3.98;95.80;100443.47;5069583;28;20043;-58
2023/02/28 05:35:08;;;;;;;10.88;5.00;;;;;;;-3.98;96.12;100441.69;5088426;28;20328;-58
2023/02/28 05:37:33;;;;;;;11.25;5.28;;;;;;;-4.01;95.94;100446.34;5083029;28;20073;-60
2023/02/28 05:39:59;;;;;;;10.82;4.63;;;;;;;-4.08;95.96;100450.38;5076849;28;20040;-60
2023/02/28 05:42:25;;;;;;;8.80;5.00;;;;;;;-4.02;96.53;100442.91;5072876;28;20035;-59
2023/02/28 05:44:50;;;;;;;12.65;5.97;;;;;;;-4.02;96.15;100444.66;5064813;28;20020;-59
2023/02/28 05:47:16;;;;;;;14.98;5.78;;;;;;;-4.09;96.38;100449.56;5093425;28;20047;-59
2023/02/28 05:49:42;;;;;;;9.48;5.65;;;;;;;-4.13;96.74;100445.50;5075894;28;20048;-59
2023/02/28 05:52:07;;;;;;;13.35;5.35;;;;;;;-4.18;96.82;100445.03;5079677;28;20432;-59
2023/02/28 05:54:33;;;;;;;8.68;5.15;;;;;;;-4.18;97.08;100445.03;5085683;28;20051;-59
2023/02/28 05:56:58;;;;;;;11.32;5.28;;;;;;;-4.29;96.38;100448.47;5088388;28;20118;-60
2023/02/28 05:59:23;;;;;;;11.65;5.70;;;;;;;-4.37;96.24;100448.19;5089880;28;20077;-59
2023/02/28 06:01:49;;;;;;;9.98;5.50;;;;;;;-4.44;96.75;100444.38;5078067;28;20115;-59
2023/02/28 06:04:19;;;;;;;12.90;6.45;;;;;;;-4.50;96.82;100447.47;5060098;28;20024;-59
2023/02/28 06:06:48;;;;;;;15.93;7.17;;;;;;;-4.53;97.12;100450.31;5078691;28;20036;-59
2023/02/28 06:09:13;;;;;;;12.65;7.03;;;;;;;-4.53;96.92;100447.72;5083945;28;20106;-59
2023/02/28 06:11:39;;;;;;;16.30;6.90;;;;;;;-4.53;97.65;100435.44;5057661;28;20399;-59
2023/02/28 06:14:04;;;;;;;12.65;6.18;;;;;;;-4.48;97.35;100443.78;5073892;28;20711;-59
2023/02/28 06:16:30;;;;;;;13.95;5.75;;;;;;;-4.42;97.25;100447.72;5058393;28;20039;-59
2023/02/28 06:18:59;;;;;;;12.48;6.05;;;;;;;-4.41;96.82;100450.22;5084234;28;20441;-59
2023/02/28 06:21:27;;;;;;;17.20;6.55;;;;;;;-4.39;96.98;100450.13;5074526;28;20391;-59
2023/02/28 06:23:52;;;;;;;18.88;7.63;;;;;;;-4.42;96.40;100452.94;5078167;28;20047;-59
2023/02/28 06:26:18;;;;;;;23.10;9.40;;;;;;;-4.42;96.07;100447.72;5085230;28;20351;-59
2023/02/28 06:28:43;;;;;;;19.20;8.88;;;;;;;-4.40;95.80;100459.72;5070135;28;20033;-59
2023/02/28 06:31:11;;;;;;;20.20;8.40;;;;;;;-4.26;96.74;100458.69;5083437;28;20021;-59
2023/02/28 06:33:37;;;;;;;22.55;7.78;;;;;;;-4.26;94.84;100461.31;5051553;28;20023;-59
2023/02/28 06:36:02;;;;;;;13.77;7.38;;;;;;;-4.24;94.34;100464.66;5075519;28;20044;-59
2023/02/28 06:38:28;;;;;;;14.93;6.43;;;;;;;-4.23;93.77;100463.69;5061887;28;20032;-59
2023/02/28 06:40:57;;;;;;;11.95;6.35;;;;;;;-4.21;93.11;100464.41;5082628;28;20471;-59
2023/02/28 06:43:23;;;;;;;13.95;5.65;;;;;;;-4.13;93.11;100463.81;5094346;28;20039;-59
2023/02/28 06:45:48;;;;;;;12.32;6.20;;;;;;;-4.10;92.34;100468.81;5076360;28;20454;-59
2023/02/28 06:48:14;;;;;;;20.90;6.63;;;;;;;-4.12;92.29;100463.72;5085402;28;20020;-59
2023/02/28 06:50:39;;;;;;;8.15;5.55;;;;;;;-4.06;91.63;100466.81;5094931;28;20032;-60
2023/02/28 06:53:05;;;;;;;20.15;5.78;;;;;;;-3.99;91.59;100473.25;5078961;28;20043;-59
2023/02/28 06:55:30;;;;;;;13.23;5.63;;;;;;;-4.00;91.21;100479.44;5080436;28;20031;-59
2023/02/28 06:57:57;;;;;;;7.95;5.28;;;;;;;-3.91;90.79;100471.69;5046984;28;20075;-59
2023/02/28 07:00:22;;;;;;;9.15;5.78;;;;;;;-3.87;90.34;100479.31;5075386;28;20032;-60
2023/02/28 07:02:48;;;;;;;11.50;5.88;;;;;;;-3.81;90.19;100484.91;5069699;28;20039;-59
2023/02/28 07:05:13;;;;;;;13.95;6.05;;;;;;;-3.69;89.57;100486.59;5084538;28;20059;-59
2023/02/28 07:07:43;;;;;;;13.50;5.88;;;;;;;-3.52;88.78;100487.03;5081710;28;20028;-60
2023/02/28 07:10:10;;;;;;;7.93;5.13;;;;;;;-3.21;87.44;100493.31;5080372;28;20040;-57
2023/02/28 07:12:36;;;;;;;19.52;6.68;;;;;;;-2.40;85.20;100478.81;5075015;28;20477;-58
2023/02/28 07:15:01;;;;;;;13.75;6.28;;;;;;;-1.53;78.91;100488.91;5084274;28;20058;-59
2023/02/28 07:17:27;;;;;;;11.85;6.22;;;;;;;-1.68;78.93;100495.47;5081652;28;20036;-59
2023/02/28 07:19:52;;;;;;;11.43;5.80;;;;;;;-1.97;79.36;100490.13;5079033;28;20040;-59
2023/02/28 07:22:17;;;;;;;16.30;6.88;;;;;;;-2.34;81.19;100495.00;5079822;28;20054;-59
2023/02/28 07:24:46;;;;;;;15.65;6.68;;;;;;;-2.65;82.87;100500.16;5061638;28;20406;-59
2023/02/28 07:27:12;;;;;;;14.45;8.02;;;;;;;-2.77;83.55;100496.75;5086451;28;20050;-59
2023/02/28 07:29:38;;;;;;;16.65;8.13;;;;;;;-2.26;81.78;100500.44;5080688;28;20177;-59
2023/02/28 07:32:03;;;;;;;15.43;6.70;;;;;;;-1.99;80.24;100498.13;5074939;28;20037;-59
2023/02/28 07:34:29;;;;;;;14.77;6.85;;;;;;;-2.27;80.93;100502.25;5079451;28;20034;-59
2023/02/28 07:36:54;;;;;;;11.63;6.47;;;;;;;-2.53;82.03;100507.03;5077652;28;20050;-59
2023/02/28 07:39:20;;;;;;;14.07;6.15;;;;;;;-2.43;82.32;100494.78;5080530;28;20031;-59
2023/02/28 07:41:46;;;;;;;13.68;5.93;;;;;;;-2.03;81.26;100501.13;5081396;28;20029;-59
2023/02/28 07:44:11;;;;;;;13.70;7.28;;;;;;;-0.77;75.94;100496.25;5062294;28;20036;-59
2023/02/28 07:46:37;;;;;;;15.48;6.57;;;;;;;-0.03;71.46;100505.31;5084563;28;20051;-59
2023/02/28 07:49:05;;;;;;;13.55;6.38;;;;;;;-1.59;75.05;100505.22;5085729;28;20060;-59
2023/02/28 07:51:31;;;;;;;9.65;5.90;;;;;;;-2.06;78.19;100501.41;5078791;28;20028;-59
2023/02/28 07:53:56;;;;;;;11.35;6.40;;;;;;;-1.81;77.88;100506.22;5077645;28;20036;-59
2023/02/28 07:56:22;;;;;;;8.63;4.88;;;;;;;-1.84;77.39;100511.75;5081870;28;20418;-59
2023/02/28 07:58:47;;;;;;;14.27;6.88;;;;;;;-1.77;77.70;100504.19;5092496;28;20033;-59
2023/02/28 08:01:13;;;;;;;11.88;5.85;;;;;;;-1.06;74.46;100504.09;5084455;28;20082;-59
2023/02/28 08:03:38;;;;;;;9.70;5.13;;;;;;;-1.24;74.56;100500.47;5080452;28;20051;-59
2023/02/28 08:06:04;;;;;;;12.38;5.63;;;;;;;-1.17;74.52;100499.81;5058230;28;20040;-59
2023/02/28 08:08:31;;;;;;;12.60;5.88;;;;;;;-1.22;76.14;100504.63;5079088;28;20498;-59
2023/02/28 08:10:59;;;;;;;13.20;6.68;;;;;;;-1.42;76.27;100503.75;5082188;28;20109;-59
2023/02/28 08:13:25;;;;;;;14.30;7.63;;;;;;;-1.39;76.20;100502.66;5084697;28;20119;-59
2023/02/28 08:15:50;;;;;;;10.68;6.25;;;;;;;-1.64;76.78;100501.31;5085703;28;20114;-59
2023/02/28 08:18:15;;;;;;;19.65;10.20;;;;;;;-1.08;77.23;100498.97;5089947;28;20036;-59
2023/02/28 08:20:41;;;;;;;16.95;6.03;;;;;;;-1.08;74.34;100498.16;5083523;28;20033;-59
2023/02/28 08:23:06;;;;;;;13.77;7.25;;;;;;;-0.29;72.92;100495.38;5085763;28;20055;-59
2023/02/28 08:25:32;;;;;;;11.27;6.65;;;;;;;0.76;70.36;100499.59;5088102;28;20036;-59
2023/02/28 08:27:57;;;;;;;14.60;8.95;;;;;;;1.64;68.60;100501.56;5091618;28;20032;-59
2023/02/28 08:30:23;;;;;;;11.68;6.90;;;;;;;1.67;62.48;100501.25;5089959;28;20032;-59
2023/02/28 08:32:48;;;;;;;12.57;5.95;;;;;;;2.57;60.63;100504.44;5078713;28;20039;-60
2023/02/28 08:35:13;;;;;;;13.38;6.93;;;;;;;2.26;59.13;100506.78;5064466;28;20043;-59
2023/02/28 08:37:39;;;;;;;12.15;6.05;;;;;;;2.53;60.69;100501.28;5045540;28;20047;-59
2023/02/28 08:40:05;;;;;;;14.15;6.13;;;;;;;2.85;58.99;100501.59;5081880;28;20043;-59
2023/02/28 08:42:32;;;;;;;13.52;6.15;;;;;;;3.43;57.16;100498.03;5086008;28;20436;-59
2023/02/28 08:44:57;;;;;;;19.02;8.10;;;;;;;2.98;55.79;100494.81;5086279;28;20028;-59
2023/02/28 08:47:23;;;;;;;23.23;8.18;;;;;;;2.79;59.83;100495.91;5088831;28;20129;-59
2023/02/28 08:49:48;;;;;;;11.45;5.30;;;;;;;3.30;57.16;100489.75;5076942;28;20024;-59
2023/02/28 08:52:14;;;;;;;11.55;5.63;;;;;;;3.97;55.93;100492.19;5088316;28;20036;-59
2023/02/28 08:54:39;;;;;;;9.23;5.68;;;;;;;3.80;54.54;100488.75;5082145;28;20026;-59
2023/02/28 08:57:04;;;;;;;11.65;7.60;;;;;;;3.83;52.80;100491.88;5080511;28;20036;-59
2023/02/28 08:59:30;;;;;;;12.82;6.43;;;;;;;3.85;52.24;100494.38;5065686;28;20024;-59
2023/02/28 09:01:56;;;;;;;8.20;5.13;;;;;;;2.97;51.16;100500.25;5087301;28;20024;-59
2023/02/28 09:04:22;;;;;;;33.90;15.95;;;;;;;3.28;53.22;100489.06;5084197;28;20031;-59
2023/02/28 09:06:48;;;;;;;19.05;9.25;;;;;;;3.97;51.90;100498.34;5083669;28;20024;-59
2023/02/28 09:09:14;;;;;;;14.05;6.38;;;;;;;2.85;51.99;100496.28;5083171;28;20107;-59
2023/02/28 09:11:39;;;;;;;13.25;7.03;;;;;;;2.56;52.68;100492.19;5080385;28;20691;-62
2023/02/28 09:14:04;;;;;;;9.82;5.28;;;;;;;2.34;53.09;100489.13;5085169;28;20466;-59
2023/02/28 09:16:30;;;;;;;36.08;18.88;;;;;;;2.18;53.99;100478.47;5088888;28;20032;-58
2023/02/28 09:18:56;;;;;;;11.70;5.95;;;;;;;1.50;55.49;100487.94;5075276;28;20567;-58
2023/02/28 09:21:21;;;;;;;8.68;5.43;;;;;;;2.34;52.05;100488.28;5081509;28;20061;-59
2023/02/28 09:23:48;;;;;;;8.80;3.95;;;;;;;1.71;52.56;100482.28;5089670;28;20081;-60
2023/02/28 09:26:24;;;;;;;8.70;5.07;;;;;;;0.96;54.80;100491.56;5064989;28;20461;-60
2023/02/28 09:28:49;;;;;;;10.50;5.22;;;;;;;0.90;55.75;100487.69;5087958;28;20351;-60
2023/02/28 09:31:22;;;;;;;11.63;5.07;;;;;;;1.89;54.67;100484.91;5095358;28;20073;-60
2023/02/28 09:33:49;;;;;;;16.00;5.35;;;;;;;1.98;53.90;100474.38;5086117;28;20020;-60
2023/02/28 09:36:14;;;;;;;9.65;5.47;;;;;;;1.74;53.35;100483.81;5088432;28;20038;-60
2023/02/28 09:38:40;;;;;;;10.68;5.20;;;;;;;1.80;53.38;100477.91;5081427;28;20036;-60
2023/02/28 09:41:32;;;;;;;11.35;5.80;;;;;;;1.28;54.42;100480.47;5083870;28;20024;-60
2023/02/28 09:43:59;;;;;;;8.48;4.63;;;;;;;1.15;53.69;100483.50;5063645;28;20036;-60
2023/02/28 09:46:40;;;;;;;10.63;4.90;;;;;;;1.67;52.33;100475.69;5052701;28;20024;-60
2023/02/28 09:49:33;;;;;;;11.50;4.70;;;;;;;1.08;52.98;100488.53;5073505;28;20083;-59
2023/02/28 09:52:01;;;;;;;8.52;4.85;;;;;;;0.75;53.22;100476.81;5074912;28;20067;-59
2023/02/28 09:54:31;;;;;;;6.80;4.43;;;;;;;0.88;53.55;100484.38;5048482;28;20062;-59
2023/02/28 09:57:10;;;;;;;6.65;3.78;;;;;;;1.42;51.94;100487.03;5079350;28;20494;-59
2023/02/28 09:59:42;;;;;;;8.48;4.25;;;;;;;0.78;52.88;100494.16;5060871;28;20096;-59
2023/02/28 10:02:21;;;;;;;6.10;3.95;;;;;;;1.45;50.30;100482.28;5063105;28;20027;-59
2023/02/28 10:04:51;;;;;;;10.65;4.93;;;;;;;3.10;48.72;100479.44;5084709;28;20028;-60
2023/02/28 10:07:38;;;;;;;8.85;5.38;;;;;;;3.19;48.52;100473.16;5084750;28;20043;-60
2023/02/28 10:10:08;;;;;;;9.23;4.55;;;;;;;3.56;47.17;100481.63;5081993;28;20043;-60
2023/02/28 10:12:34;;;;;;;6.60;4.55;;;;;;;3.06;47.29;100480.75;5059699;28;20086;-59
2023/02/28 10:14:59;;;;;;;11.23;5.22;;;;;;;1.58;50.40;100492.44;5055388;28;20526;-59
2023/02/28 10:17:36;;;;;;;13.93;6.25;;;;;;;1.77;50.14;100485.31;5049606;28;20028;-60
2023/02/28 10:20:07;;;;;;;6.60;3.70;;;;;;;1.35;50.54;100486.81;5061175;28;20351;-60
2023/02/28 10:22:39;;;;;;;15.27;6.15;;;;;;;1.18;51.40;100485.00;5080506;28;20024;-60
2023/02/28 10:25:19;;;;;;;8.38;4.78;;;;;;;1.27;51.40;100481.44;5046741;28;20039;-59
2023/02/28 10:27:44;;;;;;;11.05;5.35;;;;;;;1.37;50.67;100484.81;5069934;28;20055;-59
2023/02/28 10:30:11;;;;;;;9.77;5.22;;;;;;;2.73;49.18;100472.72;5084196;28;20475;-60
2023/02/28 10:32:36;;;;;;;5.25;3.53;;;;;;;2.89;47.31;100465.81;5052140;28;20444;-59
2023/02/28 10:35:23;;;;;;;13.02;4.75;;;;;;;2.16;48.61;100469.84;5045165;28;20024;-60
2023/02/28 10:37:51;;;;;;;7.00;3.75;;;;;;;1.70;49.82;100475.38;5072325;28;20341;-60
2023/02/28 10:40:22;;;;;;;8.70;4.43;;;;;;;1.46;50.59;100485.75;5083879;28;20107;-60
2023/02/28 10:43:03;;;;;;;10.00;5.32;;;;;;;2.21;48.69;100480.78;5057966;28;20096;-60
2023/02/28 10:45:31;;;;;;;10.50;5.20;;;;;;;3.05;47.74;100476.47;5084574;28;20039;-60
2023/02/28 10:48:17;;;;;;;11.55;4.53;;;;;;;3.19;46.25;100482.91;5078599;28;20036;-60
2023/02/28 10:50:49;;;;;;;9.13;4.20;;;;;;;2.93;46.93;100477.75;5047676;28;20432;-60
2023/02/28 10:53:16;;;;;;;17.13;5.28;;;;;;;2.44;48.16;100477.59;5081146;28;20381;-59
2023/02/28 10:55:42;;;;;;;5.93;4.03;;;;;;;1.89;49.33;100474.31;5067911;28;20410;-60
2023/02/28 10:58:29;;;;;;;13.25;4.72;;;;;;;1.73;49.85;100472.41;5068522;28;20020;-60
2023/02/28 11:00:54;;;;;;;10.02;5.57;;;;;;;1.71;50.32;100469.09;5075558;28;20033;-60
2023/02/28 11:03:31;;;;;;;20.90;7.22;;;;;;;2.05;50.37;100473.59;5062971;28;20032;-59
2023/02/28 11:05:57;;;;;;;9.77;4.70;;;;;;;2.08;49.35;100472.47;5082281;28;20142;-60
2023/02/28 11:08:24;;;;;;;13.25;6.60;;;;;;;2.58;49.22;100491.06;5075888;28;20043;-59
2023/02/28 11:10:59;;;;;;;11.52;6.05;;;;;;;3.39;47.09;100457.75;5087059;28;20031;-59
2023/02/28 11:13:28;;;;;;;5.28;3.45;;;;;;;3.59;45.90;100465.38;5070361;28;20025;-60
2023/02/28 11:15:55;;;;;;;16.90;7.13;;;;;;;4.19;45.60;100464.94;5072869;28;20077;-60
2023/02/28 11:18:50;;;;;;;8.68;4.65;;;;;;;3.88;45.00;100464.84;5088453;28;20047;-60
2023/02/28 11:21:28;;;;;;;8.98;4.90;;;;;;;3.99;45.11;100456.53;5086074;28;20060;-60
2023/02/28 11:24:00;;;;;;;8.77;4.90;;;;;;;3.60;45.89;100453.78;5081902;28;20490;-59
2023/02/28 11:26:37;;;;;;;7.43;4.45;;;;;;;3.36;46.09;100457.28;5062602;28;20512;-59
2023/02/28 11:29:08;;;;;;;10.10;5.65;;;;;;;3.45;45.65;100451.81;5056825;28;20497;-59